createdAt,value
2019-04-19T00:01:22.654Z,8.73
2019-04-19T00:06:36.452Z,8.83
2019-04-19T00:11:40.358Z,8.90
2019-04-19T00:16:34.147Z,8.87
2019-04-19T00:21:57.972Z,8.20
2019-04-19T00:26:36.013Z,8.47
2019-04-19T00:31:46.343Z,9.03
2019-04-19T00:36:38.297Z,8.37
2019-04-19T00:42:05.059Z,8.50
2019-04-19T00:47:12.063Z,8.03
2019-04-19T00:52:00.133Z,8.53
2019-04-19T00:56:58.169Z,8.40
2019-04-19T01:01:56.522Z,8.20
2019-04-19T01:06:57.103Z,7.60
2019-04-19T01:12:07.929Z,7.93
2019-04-19T01:17:07.500Z,6.90
2019-04-19T01:21:55.717Z,8.03
2019-04-19T01:26:57.513Z,8.70
2019-04-19T01:32:04.498Z,7.13
2019-04-19T01:36:58.970Z,9.30
2019-04-19T01:42:17.560Z,8.57
2019-04-19T01:47:29.373Z,8.30
2019-04-19T01:52:38.277Z,8.30
2019-04-19T01:57:14.258Z,7.80
2019-04-19T02:02:17.441Z,8.30
2019-04-19T02:07:21.755Z,8.33
2019-04-19T02:12:32.125Z,8.37
2019-04-19T02:17:18.017Z,9.23
2019-04-19T02:22:25.717Z,9.10
2019-04-19T02:27:20.038Z,8.80
2019-04-19T02:32:34.120Z,8.70
2019-04-19T02:37:43.764Z,8.37
2019-04-19T02:48:00.562Z,9.20
2019-04-19T02:52:47.231Z,9.83
2019-04-19T02:57:59.243Z,9.27
2019-04-19T03:03:06.069Z,10.37
2019-04-19T03:07:45.678Z,9.97
2019-04-19T03:13:03.358Z,9.50
2019-04-19T03:18:03.496Z,8.80
2019-04-19T03:23:03.080Z,11.47
2019-04-19T03:28:02.138Z,8.40
2019-04-19T03:33:17.083Z,9.50
2019-04-19T03:38:11.433Z,9.60
2019-04-19T03:43:31.362Z,8.97
2019-04-19T03:48:27.260Z,8.90
2019-04-19T03:53:39.458Z,9.33
2019-04-19T03:58:18.200Z,9.20
2019-04-19T04:03:22.411Z,8.77
2019-04-19T04:08:23.056Z,8.77
2019-04-19T04:13:37.301Z,9.07
2019-04-19T04:18:28.215Z,8.60
2019-04-19T04:23:36.474Z,8.67
2019-04-19T04:28:42.626Z,9.37
2019-04-19T04:33:42.536Z,10.90
2019-04-19T04:38:38.012Z,8.37
2019-04-19T04:43:43.469Z,7.53
2019-04-19T04:48:58.313Z,8.80
2019-04-19T04:53:47.095Z,9.40
2019-04-19T04:58:49.055Z,8.00
2019-04-19T05:04:01.903Z,9.80
2019-04-19T05:09:06.551Z,9.33
2019-04-19T05:14:12.634Z,8.60
2019-04-19T05:19:09.526Z,8.03
2019-04-19T05:24:19.139Z,8.23
2019-04-19T05:29:06.369Z,8.20
2019-04-19T05:34:17.701Z,8.40
2019-04-19T05:39:26.365Z,7.70
2019-04-19T05:49:25.208Z,8.80
2019-04-19T05:54:13.611Z,9.80
2019-04-19T05:59:21.499Z,9.43
2019-04-19T06:04:32.315Z,9.93
2019-04-19T06:09:15.410Z,8.13
2019-04-19T06:14:43.349Z,9.10
2019-04-19T06:19:32.268Z,8.93
2019-04-19T06:24:38.301Z,7.93
2019-04-19T06:29:43.913Z,8.60
2019-04-19T06:34:37.673Z,7.97
2019-04-19T06:39:22.525Z,8.03
2019-04-19T06:44:44.711Z,8.40
2019-04-19T06:49:27.884Z,8.57
2019-04-19T06:54:31.725Z,9.10
2019-04-19T06:59:45.700Z,8.80
2019-04-19T07:04:27.658Z,7.63
2019-04-19T07:09:50.540Z,7.83
2019-04-19T07:14:31.664Z,14.83
2019-04-19T07:19:52.785Z,8.10
2019-04-19T07:24:49.676Z,8.10
2019-04-19T07:29:33.715Z,7.70
2019-04-19T07:34:49.587Z,8.50
2019-04-19T07:40:02.395Z,8.90
2019-04-19T07:45:01.576Z,7.73
2019-04-19T07:50:08.339Z,7.90
2019-04-19T07:55:04.420Z,10.03
2019-04-19T08:00:36.912Z,7.37
2019-04-19T08:10:36.461Z,8.50
2019-04-19T08:15:40.812Z,7.63
2019-04-19T08:30:20.198Z,6.50
2019-04-19T08:35:17.764Z,8.03
2019-04-19T08:40:38.222Z,7.70
2019-04-19T08:45:45.085Z,7.43
2019-04-19T08:50:51.927Z,6.90
2019-04-19T08:56:08.876Z,7.70
2019-04-19T09:01:23.814Z,9.33
2019-04-19T09:06:36.425Z,8.00
2019-04-19T09:11:14.928Z,9.00
2019-04-19T09:16:12.687Z,7.20
2019-04-19T09:21:15.140Z,7.20
2019-04-19T09:26:20.667Z,6.50
2019-04-19T09:31:20.030Z,12.30
2019-04-19T09:36:08.473Z,6.20
2019-04-19T09:41:13.368Z,6.10
2019-04-19T09:46:06.270Z,8.97
2019-04-19T09:51:24.333Z,7.50
2019-04-19T09:56:29.219Z,7.70
2019-04-19T10:01:10.567Z,6.90
2019-04-19T10:06:10.907Z,7.27
2019-04-19T10:11:10.795Z,6.67
2019-04-19T10:16:18.780Z,6.30
2019-04-19T10:21:48.909Z,7.87
2019-04-19T10:26:58.969Z,5.87
2019-04-19T10:32:08.636Z,7.30
2019-04-19T10:37:08.025Z,5.43
2019-04-19T10:42:10.212Z,6.23
2019-04-19T10:47:10.252Z,6.70
2019-04-19T10:52:23.767Z,7.13
2019-04-19T10:57:25.730Z,6.50
2019-04-19T11:02:31.762Z,6.70
2019-04-19T11:07:32.759Z,6.10
2019-04-19T11:12:34.348Z,6.20
2019-04-19T11:17:34.129Z,6.30
2019-04-19T11:22:33.713Z,6.83
2019-04-19T11:27:33.258Z,6.03
2019-04-19T11:32:51.125Z,6.20
2019-04-19T11:37:53.009Z,5.90
2019-04-19T11:42:53.174Z,6.27
2019-04-19T11:47:53.384Z,6.60
2019-04-19T11:53:12.090Z,6.07
2019-04-19T11:58:14.676Z,6.17
2019-04-19T12:03:20.218Z,6.70
2019-04-19T12:08:20.447Z,6.60
2019-04-19T12:13:21.296Z,6.90
2019-04-19T12:18:22.033Z,6.27
2019-04-19T12:23:23.270Z,6.23
2019-04-19T12:28:24.033Z,5.40
2019-04-19T12:33:23.878Z,6.07
2019-04-19T12:38:24.124Z,6.33
2019-04-19T12:43:23.867Z,7.10
2019-04-19T12:48:23.786Z,5.80
2019-04-19T12:53:23.510Z,5.93
2019-04-19T12:58:23.994Z,6.50
2019-04-19T13:03:44.798Z,6.55
2019-04-19T13:08:45.325Z,5.80
2019-04-19T13:13:45.972Z,6.03
2019-04-19T13:18:48.410Z,5.90
2019-04-19T13:23:48.426Z,6.10
2019-04-19T13:28:49.447Z,5.23
2019-04-19T13:33:49.211Z,5.40
2019-04-19T13:39:06.879Z,6.50
2019-04-19T13:44:07.333Z,6.23
2019-04-19T13:49:06.986Z,5.77
2019-04-19T13:54:07.021Z,5.50
2019-04-19T13:59:07.644Z,6.20
2019-04-19T14:04:08.487Z,6.20
2019-04-19T14:09:11.525Z,6.03
2019-04-19T14:14:14.046Z,6.10
2019-04-19T14:19:13.996Z,5.40
2019-04-19T14:24:13.655Z,5.30
2019-04-19T14:29:15.129Z,5.30
2019-04-19T14:34:15.270Z,6.87
2019-04-19T14:39:16.322Z,4.93
2019-04-19T14:44:17.471Z,6.30
2019-04-19T14:49:17.188Z,5.43
2019-04-19T14:54:18.909Z,6.23
2019-04-19T14:59:18.716Z,5.30
2019-04-19T15:04:40.216Z,6.43
2019-04-19T15:09:39.639Z,5.40
2019-04-19T15:14:39.421Z,5.97
2019-04-19T15:19:39.694Z,5.77
2019-04-19T15:24:39.541Z,5.10
2019-04-19T15:29:41.030Z,5.60
2019-04-19T15:34:40.717Z,4.77
2019-04-19T15:39:40.260Z,5.27
2019-04-19T15:44:40.510Z,5.03
2019-04-19T15:49:40.187Z,4.70
2019-04-19T15:54:39.830Z,6.93
2019-04-19T15:59:40.986Z,5.93
2019-04-19T16:04:59.803Z,7.80
2019-04-19T16:10:22.343Z,6.50
2019-04-19T16:15:22.180Z,5.20
2019-04-19T16:20:23.016Z,5.30
2019-04-19T16:25:23.253Z,6.60
2019-04-19T16:30:24.087Z,6.00
2019-04-19T16:35:24.315Z,4.97
2019-04-19T16:40:24.601Z,5.20
2019-04-19T16:45:26.176Z,5.10
2019-04-19T16:50:25.802Z,4.73
2019-04-19T16:55:25.500Z,4.77
2019-04-19T17:00:38.768Z,5.17
2019-04-19T17:05:38.986Z,5.00
2019-04-19T17:10:40.600Z,5.28
2019-04-19T17:16:01.790Z,5.00
2019-04-19T17:21:10.551Z,5.00
2019-04-19T17:26:10.929Z,5.03
2019-04-19T17:31:11.875Z,5.67
2019-04-19T17:36:12.433Z,4.87
2019-04-19T17:41:12.480Z,4.37
2019-04-19T17:46:12.639Z,4.47
2019-04-19T17:51:13.674Z,4.27
2019-04-19T17:56:13.339Z,4.27
2019-04-19T18:01:12.940Z,4.20
2019-04-19T18:06:14.150Z,4.30
2019-04-19T18:11:20.944Z,2.90
2019-04-19T18:16:16.450Z,4.00
2019-04-19T18:21:16.555Z,3.57
2019-04-19T18:26:24.180Z,3.97
2019-04-19T18:31:25.993Z,5.20
2019-04-19T18:36:25.322Z,3.47
2019-04-19T18:41:23.083Z,3.80
2019-04-19T18:46:22.865Z,3.40
2019-04-19T18:51:34.097Z,3.70
2019-04-19T18:56:26.617Z,4.47
2019-04-19T19:01:32.347Z,4.57
2019-04-19T19:06:33.307Z,4.40
2019-04-19T19:11:28.230Z,4.30
2019-04-19T19:16:32.217Z,3.90
2019-04-19T19:21:36.343Z,4.50
2019-04-19T19:26:48.409Z,4.40
2019-04-19T19:31:34.990Z,4.27
2019-04-19T19:36:42.065Z,4.50
2019-04-19T19:47:29.432Z,3.67
2019-04-19T19:52:17.325Z,4.33
2019-04-19T19:57:18.379Z,3.53
2019-04-19T20:02:12.544Z,3.20
2019-04-19T20:07:05.305Z,3.20
2019-04-19T20:12:09.145Z,3.00
2019-04-19T20:17:07.959Z,10.00
2019-04-19T20:22:10.542Z,2.70
2019-04-19T20:27:17.761Z,2.30
2019-04-19T20:32:17.939Z,2.23
2019-04-19T20:37:19.401Z,2.47
2019-04-19T20:42:25.291Z,2.93
2019-04-19T20:47:23.168Z,2.50
2019-04-19T20:52:40.184Z,2.53
2019-04-19T20:58:01.032Z,6.13
2019-04-19T21:02:51.962Z,2.87
2019-04-19T21:07:58.511Z,2.97
2019-04-19T21:12:57.464Z,2.73
2019-04-19T21:17:55.984Z,3.90
2019-04-19T21:23:00.032Z,4.67
2019-04-19T21:27:59.907Z,4.40
2019-04-19T21:33:04.822Z,7.07
2019-04-19T21:38:08.235Z,6.10
2019-04-19T21:43:05.418Z,6.70
2019-04-19T21:48:03.348Z,6.13
2019-04-19T21:53:08.523Z,4.43
2019-04-19T21:58:10.409Z,3.87
2019-04-19T22:03:13.915Z,3.23
2019-04-19T22:08:08.156Z,2.97
2019-04-19T22:13:08.384Z,2.17
2019-04-19T22:18:08.876Z,13.30
2019-04-19T22:23:11.586Z,3.20
2019-04-19T22:28:11.808Z,2.80
2019-04-19T22:33:12.658Z,3.10
2019-04-19T22:38:17.240Z,3.50
2019-04-19T22:43:15.118Z,3.30
2019-04-19T22:48:18.320Z,2.90
2019-04-19T22:53:19.065Z,3.03
2019-04-19T22:58:23.174Z,2.57
2019-04-19T23:03:29.715Z,3.20
2019-04-19T23:08:30.784Z,3.30
2019-04-19T23:13:27.174Z,3.10
2019-04-19T23:18:28.565Z,3.10
2019-04-19T23:23:32.566Z,3.40
2019-04-19T23:28:33.950Z,3.40
2019-04-19T23:33:32.325Z,2.83
2019-04-19T23:38:34.260Z,2.93
2019-04-19T23:43:37.256Z,3.10
2019-04-19T23:48:35.706Z,3.23
2019-04-19T23:53:39.564Z,3.30
2019-04-19T23:58:39.610Z,2.97
